Latest Weather Observations for Dennes Point

IDT60801

Issued at 7:31 am EDT Sunday 1 March 2015 (issued every 30 minutes, with the page automatically refreshed every 10 minutes)

About weather observations | Map of weather stations | Latest weather observations for TAS | Other Formats
Station Details ID: 094255 Name: DENNES POINT Lat: -43.06 Lon: 147.36 Height: 5.67 m
Data from the previous 72 hours. | See also: Recent months at Dennes Point
Date/Time
EDT
Temp
°C
App
Temp
°C
Dew
Point
Rel
Hum
%
Delta-T
°C
Wind Press
QNH
hPa
Press
MSL
hPa
Rain
since 9 am
mm
Dir
 
Spd
km/h
Gust
km/h
Spd
kts
Gust
kts
01/07:30am 14.3 9.7 9.5 73 2.5 WSW 24 30 13 16 1003.3 1003.2 2.4
01/07:00am 14.2 10.0 9.8 75 2.3 WSW 22 26 12 14 1002.6 1002.5 2.4
01/06:30am 14.4 9.8 9.8 74 2.4 W 24 30 13 16 1001.8 1001.8 2.4
01/06:00am 14.8 9.4 9.4 70 2.8 W 28 39 15 21 1001.3 1001.3 2.4
01/05:30am 15.3 9.8 9.2 67 3.1 WSW 28 39 15 21 1001.0 1001.0 2.4
01/05:00am 15.8 10.6 9.0 64 3.5 W 26 35 14 19 1000.6 1000.6 2.4
01/04:30am 15.9 11.7 8.4 61 3.8 W 20 28 11 15 1000.4 1000.4 2.4
01/04:00am 16.2 11.0 8.9 62 3.8 WNW 26 39 14 21 999.9 999.9 2.4
01/03:30am 16.4 11.7 9.1 62 3.8 WNW 24 32 13 17 999.9 999.9 2.4
01/03:00am 16.8 11.5 8.5 58 4.3 W 26 43 14 23 999.8 999.8 2.4
01/02:30am 17.0 11.3 9.9 63 3.7 W 30 41 16 22 999.4 999.4 2.4
01/02:02am 17.5 12.0 9.2 58 4.3 WNW 28 48 15 26 999.2 999.2 2.4
01/02:00am 17.5 12.3 8.9 57 4.5 WNW 26 48 14 26 999.3 999.3 2.4
01/01:30am 17.4 13.5 9.3 59 4.2 WNW 20 30 11 16 999.2 999.2 2.4
01/01:00am 17.6 12.7 10.0 61 4.0 WNW 26 35 14 19 998.8 998.8 2.4
01/12:30am 18.2 12.9 9.8 58 4.4 NW 28 41 15 22 998.6 998.6 2.4
01/12:00am 18.8 15.6 11.4 62 4.1 WNW 19 32 10 17 998.6 998.6 2.4
 
Date/Time
EDT
Temp
°C
App
Temp
°C
Dew
Point
Rel
Hum
%
Delta-T
°C
Wind Press
QNH
hPa
Press
MSL
hPa
Rain
since 9 am
mm
Dir
 
Spd
km/h
Gust
km/h
Spd
kts
Gust
kts
28/11:30pm 19.0 15.7 11.6 62 4.1 W 20 28 11 15 998.0 998.0 2.4
28/11:00pm 19.6 17.3 11.6 60 4.4 WNW 15 35 8 19 998.1 998.1 2.4
28/10:30pm 19.2 18.6 13.6 70 3.2 WSW 9 17 5 9 998.2 998.2 2.4
28/10:00pm 18.3 18.1 13.6 74 2.7 W 7 13 4 7 997.6 997.6 2.4
28/09:30pm 18.4 18.0 14.1 76 2.5 WSW 9 15 5 8 997.0 997.0 2.4
28/09:00pm 17.3 18.3 14.2 82 1.8 ESE 2 6 1 3 996.8 996.8 2.4
28/08:30pm 17.7 18.4 14.4 81 1.9 W 4 6 2 3 996.5 996.5 2.4
28/08:00pm 18.1 17.9 14.6 80 2.0 SW 9 11 5 6 996.6 996.6 2.4
28/07:30pm 20.4 20.2 13.6 65 3.9 NW 7 9 4 5 995.7 995.7 2.4
28/07:00pm 20.6 20.5 14.0 66 3.8 N 7 13 4 7 995.8 995.8 2.4
28/06:30pm 20.5 19.8 13.2 63 4.2 NNW 9 17 5 9 996.5 996.5 2.4
28/06:00pm 19.8 18.3 14.2 70 3.3 N 15 22 8 12 996.4 996.4 2.4
28/05:30pm 18.5 16.9 13.8 74 2.7 N 15 22 8 12 996.8 996.8 2.4
28/05:00pm 18.4 16.7 13.7 74 2.7 N 15 24 8 13 997.1 997.1 2.4
28/04:30pm 18.3 15.4 13.0 71 3.0 NNE 20 28 11 15 997.3 997.3 2.4
28/04:00pm 18.2 14.6 13.1 72 2.9 N 24 30 13 16 997.7 997.7 2.4
28/03:41pm 18.9 16.1 12.6 67 3.5 NNW 19 33 10 18 998.1 998.1 2.4
28/03:30pm 18.3 18.0 12.7 70 3.1 N 6 13 3 7 998.4 998.4 2.4
28/03:00pm 17.6 16.0 12.9 74 2.6 NNE 13 20 7 11 999.1 999.1 2.4
28/02:30pm 16.7 15.9 13.0 79 2.1 N 9 13 5 7 1000.0 1000.0 2.4
28/02:00pm 16.3 15.9 13.0 81 1.8 NNE 7 11 4 6 1000.5 1000.5 2.4
28/01:30pm 16.2 15.4 12.9 81 1.8 NNE 9 13 5 7 1000.8 1000.8 2.4
28/01:00pm 15.6 15.6 12.4 81 1.8 WNW 4 9 2 5 1001.5 1001.5 2.2
28/12:30pm 16.2 15.0 12.9 81 1.8 N 11 17 6 9 1001.8 1001.8 2.2
28/12:00pm 16.4 13.5 12.4 77 2.2 N 19 24 10 13 1002.6 1002.5 0.6
28/11:30am 16.8 13.3 12.3 75 2.5 N 22 26 12 14 1002.6 1002.5 0.0
28/11:00am 16.8 12.7 11.5 71 2.9 NNE 24 28 13 15 1002.6 1002.5 0.0
28/10:30am 16.3 12.7 11.7 74 2.5 NNE 22 28 12 15 1002.9 1002.8 0.0
28/10:00am 16.1 12.5 11.9 76 2.3 NNE 22 28 12 15 1003.2 1003.1 0.0
28/09:30am 15.3 11.0 10.7 74 2.4 NNE 24 30 13 16 1004.1 1004.0 0.0
28/09:00am 15.0 10.7 10.6 75 2.3 NNE 24 26 13 14 1004.7 1004.6 0.2
28/08:30am 14.8 10.8 10.6 76 2.2 NNE 22 28 12 15 1005.1 1005.0 0.2
28/08:00am 14.6 10.5 10.2 75 2.3 NNE 22 24 12 13 1005.4 1005.3 0.2
28/07:30am 14.4 10.1 9.4 72 2.6 NNE 22 26 12 14 1005.7 1005.6 0.2
28/07:00am 14.4 10.4 9.2 71 2.7 NNE 20 24 11 13 1006.3 1006.2 0.2
28/06:30am 14.2 11.1 8.8 70 2.7 NNE 15 20 8 11 1006.5 1006.4 0.2
28/06:00am 14.3 11.6 8.9 70 2.7 NNE 13 17 7 9 1006.9 1006.8 0.2
28/05:30am 14.0 11.5 8.4 69 2.8 NNE 11 13 6 7 1007.1 1007.0 0.2
28/05:00am 13.9 12.4 8.5 70 2.7 NE 6 9 3 5 1007.6 1007.5 0.2
28/04:30am 13.5 11.8 7.5 67 2.9 NE 6 9 3 5 1007.9 1007.8 0.2
28/04:00am 13.0 11.5 6.8 66 3.0 SSW 4 4 2 2 1008.4 1008.3 0.2
28/03:30am 12.8 11.7 6.8 67 2.9 SSW 2 2 1 1 1009.0 1008.9 0.2
28/03:00am 12.5 10.9 6.5 67 2.9 SSW 4 4 2 2 1009.0 1008.9 0.2
28/02:30am 12.5 11.0 6.8 68 2.7 S 4 6 2 3 1009.4 1009.3 0.2
28/02:00am 12.4 11.0 7.1 70 2.6 SSW 4 4 2 2 1009.9 1009.8 0.2
28/01:30am 12.1 10.3 7.0 71 2.4 SSW 6 6 3 3 1010.2 1010.1 0.2
28/01:00am 12.4 10.9 6.9 69 2.6 S 4 6 2 3 1010.5 1010.4 0.2
28/12:30am 13.0 12.0 7.2 68 2.8 S 2 4 1 2 1010.8 1010.7 0.2
28/12:00am 13.0 11.6 7.2 68 2.8 SSW 4 6 2 3 1011.1 1011.0 0.2
 
Date/Time
EDT
Temp
°C
App
Temp
°C
Dew
Point
Rel
Hum
%
Delta-T
°C
Wind Press
QNH
hPa
Press
MSL
hPa
Rain
since 9 am
mm
Dir
 
Spd
km/h
Gust
km/h
Spd
kts
Gust
kts
27/11:30pm 13.0 11.7 7.5 69 2.7 S 4 4 2 2 1011.2 1011.1 0.2
27/11:00pm 13.1 12.1 7.5 69 2.7 S 2 6 1 3 1011.2 1011.1 0.2
27/10:30pm 13.3 11.9 7.3 67 2.9 S 4 6 2 3 1011.2 1011.1 0.2
27/10:00pm 13.5 12.1 7.3 66 3.0 SSW 4 7 2 4 1011.2 1011.1 0.2
27/09:30pm 13.6 12.2 7.2 65 3.1 SSE 4 7 2 4 1011.1 1011.0 0.2
27/09:00pm 13.7 11.7 7.0 64 3.3 SSW 7 11 4 6 1011.0 1010.9 0.2
27/08:30pm 13.8 11.0 7.1 64 3.3 SSW 11 17 6 9 1010.7 1010.6 0.2
27/08:00pm 13.9 10.8 7.2 64 3.3 SSW 13 22 7 12 1010.5 1010.4 0.2
27/07:30pm 14.1 10.6 7.4 64 3.3 SSW 15 30 8 16 1010.1 1010.0 0.2
27/07:00pm 14.4 11.8 7.7 64 3.3 S 11 19 6 10 1010.0 1009.9 0.2
27/06:30pm 14.7 11.5 8.4 66 3.2 SSW 15 26 8 14 1010.1 1010.0 0.2
27/06:00pm 14.8 10.9 8.7 67 3.1 SSW 19 28 10 15 1010.0 1009.9 0.2
27/05:30pm 15.0 10.6 9.1 68 3.0 SSW 22 37 12 20 1009.9 1009.8 0.2
27/05:00pm 15.4 11.0 8.9 65 3.3 SSW 22 33 12 18 1009.3 1009.2 0.2
27/04:30pm 16.8 13.2 10.4 66 3.4 SSW 20 30 11 16 1009.0 1008.9 0.2
27/04:00pm 16.7 13.0 10.3 66 3.4 SSW 20 30 11 16 1009.0 1008.9 0.2
27/03:30pm 17.4 16.4 12.3 72 2.8 ESE 9 11 5 6 1009.2 1009.1 0.2
27/03:00pm 16.8 15.1 11.3 70 3.0 ESE 11 15 6 8 1009.3 1009.2 0.2
27/02:30pm 17.8 16.3 11.8 68 3.3 ESE 11 15 6 8 1009.2 1009.1 0.2
27/02:00pm 16.9 15.2 11.2 69 3.1 ESE 11 15 6 8 1009.0 1008.9 0.2
27/01:30pm 16.9 14.8 11.0 68 3.2 ESE 13 17 7 9 1009.5 1009.4 0.2
27/01:00pm 16.6 15.5 10.5 67 3.2 ESE 7 9 4 5 1009.7 1009.6 0.2
27/12:30pm 17.3 16.3 10.9 66 3.4 E 7 11 4 6 1009.7 1009.6 0.2
27/12:00pm 17.7 16.8 11.3 66 3.5 E 7 11 4 6 1009.9 1009.8 0.2
27/11:30am 16.2 15.4 9.6 65 3.4 N 4 6 2 3 1010.1 1010.0 0.2
27/11:00am 16.1 15.1 10.4 69 3.0 N 6 7 3 4 1010.7 1010.6 0.0
27/10:30am 15.2 14.3 9.1 67 3.1 NE 4 6 2 3 1010.8 1010.7 0.0
27/10:00am 15.5 15.4 9.6 68 3.1 CALM 0 2 0 1 1010.8 1010.7 0.0
27/09:30am 14.9 13.7 9.5 70 2.8 W 6 9 3 5 1011.4 1011.3 0.0
27/09:00am 14.8 13.9 9.4 70 2.8 NNE 4 6 2 3 1010.9 1010.8 0.2
27/08:30am 14.7 13.2 9.1 69 2.9 ENE 7 11 4 6 1010.6 1010.5 0.2
27/08:00am 14.0 13.6 8.4 69 2.8 CALM 0 2 0 1 1010.8 1010.7 0.2
27/07:30am 13.7 12.5 8.1 69 2.8 NNW 4 6 2 3 1011.4 1011.3 0.2
27/07:00am 13.0 11.9 8.3 73 2.3 SSW 4 6 2 3 1011.3 1011.2 0.2
27/06:30am 13.1 11.4 8.2 72 2.4 SSW 7 9 4 5 1010.8 1010.7 0.2
27/06:00am 13.0 11.3 8.3 73 2.3 SW 7 11 4 6 1010.8 1010.7 0.2
27/05:30am 13.1 11.5 7.8 70 2.6 SSW 6 9 3 5 1010.5 1010.4 0.2
27/05:00am 13.1 11.9 8.2 72 2.4 WSW 4 6 2 3 1010.4 1010.3 0.2
27/04:30am 13.5 12.5 7.5 67 2.9 NE 2 4 1 2 1010.5 1010.4 0.2
27/04:00am 13.5 12.1 7.3 66 3.0 ENE 4 7 2 4 1010.7 1010.6 0.2
27/03:30am 13.2 12.2 7.2 67 2.9 W 2 4 1 2 1010.8 1010.7 0.2
27/03:00am 13.1 11.3 7.3 68 2.8 W 6 9 3 5 1011.3 1011.2 0.2
27/02:30am 13.1 10.9 7.8 70 2.6 W 9 13 5 7 1011.3 1011.2 0.2
27/02:00am 12.7 10.9 7.0 68 2.7 SSW 6 7 3 4 1011.6 1011.5 0.2
27/01:30am 12.4 10.5 6.9 69 2.6 SSW 6 6 3 3 1011.8 1011.7 0.2
27/01:00am 12.1 10.5 6.4 68 2.7 SSW 4 6 2 3 1012.1 1012.0 0.2
27/12:30am 12.4 10.5 6.5 67 2.8 SSW 6 7 3 4 1012.2 1012.1 0.2
27/12:00am 12.7 11.5 6.5 66 3.0 S 2 6 1 3 1012.3 1012.2 0.2
 
Date/Time
EDT
Temp
°C
App
Temp
°C
Dew
Point
Rel
Hum
%
Delta-T
°C
Wind Press
QNH
hPa
Press
MSL
hPa
Rain
since 9 am
mm
Dir
 
Spd
km/h
Gust
km/h
Spd
kts
Gust
kts
26/11:30pm 12.7 10.8 6.5 66 3.0 SSW 6 7 3 4 1012.5 1012.4 0.2
26/11:00pm 13.1 10.8 5.8 61 3.4 SSW 7 9 4 5 1012.7 1012.6 0.2
26/10:30pm 13.3 11.6 5.7 60 3.6 S 4 6 2 3 1012.7 1012.6 0.2
26/10:00pm 13.4 11.6 5.6 59 3.7 SSE 4 6 2 3 1012.7 1012.6 0.2
26/09:30pm 13.3 11.3 6.2 62 3.4 S 6 7 3 4 1012.2 1012.1 0.2
26/09:00pm 13.3 11.7 6.2 62 3.4 S 4 6 2 3 1011.9 1011.8 0.2
26/08:30pm 13.5 11.2 5.9 60 3.6 S 7 11 4 6 1011.2 1011.1 0.2
26/08:00pm 13.6 11.4 6.0 60 3.6 SSW 7 9 4 5 1010.9 1010.8 0.2
26/07:30pm 13.9 11.2 5.8 58 3.8 S 9 17 5 9 1010.4 1010.3 0.2
26/07:00pm 14.1 12.0 6.5 60 3.7 SSE 7 11 4 6 1010.2 1010.1 0.2
26/06:30pm 14.4 11.9 6.7 60 3.7 SSW 9 17 5 9 1009.9 1009.8 0.2
26/06:00pm 14.7 12.3 6.8 59 3.9 SSW 9 15 5 8 1009.5 1009.4 0.2
26/05:30pm 14.4 10.0 6.7 60 3.7 SSW 19 32 10 17 1009.4 1009.3 0.2
26/05:00pm 14.8 10.6 7.6 62 3.6 SSW 19 28 10 15 1009.1 1009.0 0.2
26/04:30pm 15.4 11.1 7.7 60 3.8 SSW 20 39 11 21 1008.6 1008.5 0.2
26/04:00pm 16.6 12.3 9.5 63 3.7 SSW 22 37 12 20 1008.6 1008.5 0.2
26/03:30pm 15.5 10.6 9.8 69 3.0 SSW 26 43 14 23 1008.3 1008.2 0.2
26/03:00pm 15.3 9.5 10.9 75 2.3 SSW 32 43 17 23 1008.1 1008.0 0.2
26/02:30pm 14.4 9.2 11.7 84 1.4 SSW 30 41 16 22 1007.8 1007.7 0.2
26/02:00pm 14.6 10.1 12.6 88 1.1 SSW 28 39 15 21 1007.5 1007.4 0.2
26/01:30pm 16.1 11.0 11.9 76 2.3 SSW 30 41 16 22 1006.9 1006.8 0.0
26/01:08pm 17.2 12.6 12.3 73 2.7 SSW 28 46 15 25 1006.6 1006.5 0.0
26/01:00pm 17.9 14.6 11.7 67 3.4 SW 20 46 11 25 1006.3 1006.2 0.0
26/12:58pm 18.6 15.8 11.2 62 4.0 WSW 17 46 9 25 1006.1 1006.0 0.0
26/12:30pm 22.4 18.8 11.8 51 6.0 W 22 32 12 17 1005.9 1005.8 0.0
26/12:00pm 20.5 18.2 13.0 62 4.3 W 17 20 9 11 1006.2 1006.1 0.0
26/11:30am 19.5 19.0 12.5 64 3.9 SSW 7 9 4 5 1006.4 1006.3 0.0
26/11:00am 19.1 19.0 12.1 64 3.9 NNW 4 7 2 4 1006.7 1006.6 0.0
26/10:30am 18.1 16.7 12.1 68 3.3 N 11 13 6 7 1006.5 1006.4 0.0
26/10:00am 17.1 14.9 10.9 67 3.3 N 13 17 7 9 1006.4 1006.3 0.0
26/09:30am 17.4 14.1 11.7 69 3.1 N 20 24 11 13 1006.2 1006.1 0.0
26/09:00am 16.6 12.3 10.9 69 3.1 N 24 28 13 15 1006.2 1006.1 0.0
26/08:30am 16.5 12.8 11.4 72 2.8 N 22 26 12 14 1006.3 1006.2 0.0
26/08:00am 16.4 12.0 11.6 73 2.6 NNE 26 33 14 18 1006.5 1006.4 0.0

Other Formats:

Comma delimited format used in spreadsheet applications
http://www.bom.gov.au/fwo/IDT60801/IDT60801.94988.axf

JavaScript Object Notation format (JSON) in row-major order
http://www.bom.gov.au/fwo/IDT60801/IDT60801.94988.json